createdAt,value
2023-04-15T00:03:35.169Z,72.90
2023-04-15T00:06:05.586Z,72.23
2023-04-15T00:08:33.033Z,70.96
2023-04-15T00:11:03.278Z,70.35
2023-04-15T00:13:32.763Z,70.77
2023-04-15T00:15:59.895Z,70.49
2023-04-15T00:18:27.029Z,71.18
2023-04-15T00:20:54.441Z,70.17
2023-04-15T00:23:21.522Z,71.17
2023-04-15T00:25:49.030Z,72.61
2023-04-15T00:28:16.391Z,69.67
2023-04-15T00:30:44.295Z,70.38
2023-04-15T00:33:12.036Z,71.24
2023-04-15T00:35:40.052Z,70.12
2023-04-15T00:38:11.028Z,69.68
2023-04-15T00:40:38.377Z,70.62
2023-04-15T00:43:05.766Z,69.90
2023-04-15T00:45:33.940Z,70.09
2023-04-15T00:48:01.116Z,70.70
2023-04-15T00:50:29.110Z,71.20
2023-04-15T00:52:56.292Z,72.38
2023-04-15T00:55:27.381Z,71.19
2023-04-15T00:57:55.077Z,70.94
2023-04-15T01:00:25.115Z,71.89
2023-04-15T01:02:53.564Z,70.27
2023-04-15T01:05:20.986Z,71.48
2023-04-15T01:07:49.330Z,71.45
2023-04-15T01:10:17.173Z,72.30
2023-04-15T01:12:44.717Z,72.46
2023-04-15T01:15:12.292Z,72.37
2023-04-15T01:17:57.854Z,73.90
2023-04-15T01:20:26.259Z,71.50
2023-04-15T01:22:55.016Z,69.40
2023-04-15T01:25:35.124Z,70.48
2023-04-15T01:28:05.161Z,68.38
2023-04-15T01:30:35.949Z,71.00
2023-04-15T01:33:03.193Z,70.59
2023-04-15T01:35:34.188Z,69.46
2023-04-15T01:38:09.175Z,69.70
2023-04-15T01:40:38.691Z,69.40
2023-04-15T01:43:05.672Z,68.46
2023-04-15T01:45:32.624Z,68.59
2023-04-15T01:47:59.671Z,68.00
2023-04-15T01:50:27.209Z,66.35
2023-04-15T01:52:57.659Z,67.46
2023-04-15T01:55:25.712Z,66.74
2023-04-15T01:57:53.104Z,68.22
2023-04-15T02:00:22.716Z,68.46
2023-04-15T02:03:16.153Z,67.88
2023-04-15T02:05:43.827Z,67.42
2023-04-15T02:08:11.398Z,67.41
2023-04-15T02:10:39.092Z,69.55
2023-04-15T02:13:05.938Z,68.16
2023-04-15T02:15:33.697Z,69.11
2023-04-15T02:18:03.711Z,70.03
2023-04-15T02:20:32.463Z,68.81
2023-04-15T02:22:59.944Z,68.77
2023-04-15T02:25:26.963Z,69.47
2023-04-15T02:27:54.986Z,70.18
2023-04-15T02:30:23.977Z,69.68
2023-04-15T02:32:51.443Z,70.01
2023-04-15T02:35:21.198Z,69.52
2023-04-15T02:37:48.099Z,69.39
2023-04-15T02:40:15.221Z,67.89
2023-04-15T02:42:44.378Z,66.38
2023-04-15T02:45:16.064Z,67.04
2023-04-15T02:47:46.336Z,67.60
2023-04-15T02:50:13.695Z,67.57
2023-04-15T02:52:43.493Z,68.14
2023-04-15T02:55:11.234Z,67.77
2023-04-15T02:57:39.481Z,68.20
2023-04-15T03:00:10.683Z,65.84
2023-04-15T03:02:42.455Z,66.14
2023-04-15T03:05:15.851Z,65.46
2023-04-15T03:07:49.275Z,64.42
2023-04-15T03:10:16.854Z,64.15
2023-04-15T03:12:43.809Z,63.98
2023-04-15T03:15:16.608Z,64.30
2023-04-15T03:17:49.720Z,65.45
2023-04-15T03:20:17.316Z,65.44
2023-04-15T03:22:44.809Z,69.01
2023-04-15T03:25:12.235Z,67.27
2023-04-15T03:27:40.706Z,66.77
2023-04-15T03:30:11.570Z,65.21
2023-04-15T03:32:40.691Z,65.63
2023-04-15T03:35:09.964Z,66.50
2023-04-15T03:37:37.259Z,65.24
2023-04-15T03:40:11.686Z,63.87
2023-04-15T03:42:38.855Z,63.50
2023-04-15T03:45:06.606Z,63.53
2023-04-15T03:47:34.250Z,63.42
2023-04-15T03:50:02.268Z,67.31
2023-04-15T03:52:29.298Z,69.47
2023-04-15T03:54:56.455Z,69.53
2023-04-15T03:57:23.581Z,69.29
2023-04-15T03:59:51.469Z,68.97
2023-04-15T04:02:18.397Z,69.04
2023-04-15T04:04:46.558Z,69.54
2023-04-15T04:07:18.130Z,68.93
2023-04-15T04:09:47.050Z,68.09
2023-04-15T04:12:14.589Z,67.65
2023-04-15T04:14:41.905Z,67.85
2023-04-15T04:17:09.070Z,67.65
2023-04-15T04:19:37.672Z,67.84
2023-04-15T04:22:04.966Z,67.57
2023-04-15T04:24:32.490Z,67.80
2023-04-15T04:27:01.056Z,67.51
2023-04-15T04:29:27.916Z,66.83
2023-04-15T04:31:54.902Z,68.00
2023-04-15T04:34:21.976Z,67.44
2023-04-15T04:36:49.602Z,67.49
2023-04-15T04:39:17.039Z,66.91
2023-04-15T04:41:46.842Z,67.23
2023-04-15T04:44:13.834Z,67.54
2023-04-15T04:46:41.479Z,68.96
2023-04-15T04:49:08.507Z,67.11
2023-04-15T04:51:36.278Z,66.41
2023-04-15T04:54:04.504Z,67.11
2023-04-15T04:56:32.164Z,67.65
2023-04-15T04:58:59.998Z,67.13
2023-04-15T05:01:29.749Z,67.34
2023-04-15T05:03:57.540Z,65.63
2023-04-15T05:06:24.456Z,65.65
2023-04-15T05:08:52.130Z,64.25
2023-04-15T05:11:20.059Z,64.85
2023-04-15T05:13:47.270Z,64.42
2023-04-15T05:16:15.302Z,64.54
2023-04-15T05:18:43.062Z,64.15
2023-04-15T05:21:11.962Z,63.76
2023-04-15T05:23:40.258Z,63.20
2023-04-15T05:26:07.494Z,62.79
2023-04-15T05:28:35.371Z,62.60
2023-04-15T05:31:03.109Z,61.86
2023-04-15T05:33:33.571Z,61.68
2023-04-15T05:36:01.576Z,61.41
2023-04-15T05:38:29.192Z,61.36
2023-04-15T05:40:57.145Z,61.91
2023-04-15T05:43:25.197Z,62.42
2023-04-15T05:45:52.835Z,61.91
2023-04-15T05:48:21.178Z,62.62
2023-04-15T05:50:50.086Z,61.38
2023-04-15T05:53:20.960Z,60.97
2023-04-15T05:55:48.208Z,61.45
2023-04-15T05:58:15.298Z,61.20
2023-04-15T06:00:42.934Z,61.32
2023-04-15T06:03:12.210Z,61.18
2023-04-15T06:05:40.958Z,60.28
2023-04-15T06:08:08.534Z,61.22
2023-04-15T06:10:36.957Z,62.31
2023-04-15T06:13:04.388Z,63.21
2023-04-15T06:15:39.641Z,62.22
2023-04-15T06:18:06.504Z,61.57
2023-04-15T06:20:33.988Z,63.66
2023-04-15T06:23:01.977Z,64.07
2023-04-15T06:25:29.997Z,63.66
2023-04-15T06:27:58.196Z,62.81
2023-04-15T06:30:26.354Z,62.95
2023-04-15T06:32:56.439Z,63.11
2023-04-15T06:35:23.521Z,61.20
2023-04-15T06:37:52.253Z,59.80
2023-04-15T06:40:21.811Z,59.17
2023-04-15T06:42:50.979Z,59.67
2023-04-15T06:45:19.816Z,60.54
2023-04-15T06:47:47.731Z,59.31
2023-04-15T06:50:18.031Z,60.93
2023-04-15T06:52:44.885Z,60.68
2023-04-15T06:55:13.959Z,60.38
2023-04-15T06:57:41.371Z,59.67
2023-04-15T07:00:11.753Z,60.42
2023-04-15T07:02:39.768Z,58.82
2023-04-15T07:05:07.706Z,60.83
2023-04-15T07:07:36.325Z,57.88
2023-04-15T07:32:03.658Z,57.52
2023-04-15T07:34:32.613Z,57.22
2023-04-15T07:37:01.643Z,59.25
2023-04-15T07:39:29.384Z,57.93
2023-04-15T07:41:56.497Z,58.95
2023-04-15T07:44:24.228Z,58.09
2023-04-15T07:46:51.407Z,57.72
2023-04-15T07:49:19.842Z,57.64
2023-04-15T07:51:50.218Z,56.71
2023-04-15T07:54:17.297Z,57.92
2023-04-15T07:56:44.488Z,57.33
2023-04-15T07:59:15.795Z,56.68
2023-04-15T08:01:42.941Z,56.19
2023-04-15T08:04:11.031Z,56.99
2023-04-15T08:06:40.253Z,55.75
2023-04-15T08:09:08.599Z,56.10
2023-04-15T08:11:36.993Z,56.97
2023-04-15T08:14:04.410Z,56.52
2023-04-15T08:16:32.530Z,56.14
2023-04-15T08:19:00.052Z,54.37
2023-04-15T08:21:31.136Z,56.18
2023-04-15T08:23:58.360Z,54.29
2023-04-15T08:26:26.425Z,55.14
2023-04-15T08:28:54.403Z,55.08
2023-04-15T08:31:22.949Z,55.83
2023-04-15T08:33:52.503Z,53.69
2023-04-15T08:36:20.318Z,54.61
2023-04-15T08:38:47.735Z,54.46
2023-04-15T08:41:29.594Z,54.38
2023-04-15T08:44:06.097Z,53.39
2023-04-15T08:46:37.389Z,55.76
2023-04-15T08:49:06.121Z,53.76
2023-04-15T08:51:34.185Z,54.06
2023-04-15T08:54:02.912Z,55.08
2023-04-15T08:56:33.012Z,52.61
2023-04-15T08:59:04.117Z,53.26
2023-04-15T09:01:32.931Z,52.97
2023-04-15T09:04:01.377Z,55.47
2023-04-15T09:06:28.826Z,53.33
2023-04-15T09:08:57.710Z,52.17
2023-04-15T09:11:25.422Z,52.80
2023-04-15T09:13:52.475Z,53.11
2023-04-15T09:16:21.683Z,54.38
2023-04-15T09:18:49.304Z,55.28
2023-04-15T09:21:19.560Z,52.51
2023-04-15T09:24:02.309Z,51.61
2023-04-15T09:26:39.031Z,53.15
2023-04-15T09:29:08.076Z,52.14
2023-04-15T09:31:37.019Z,52.06
2023-04-15T09:34:04.606Z,53.14
2023-04-15T09:36:47.743Z,52.99
2023-04-15T09:39:16.748Z,51.37
2023-04-15T09:41:44.789Z,50.80
2023-04-15T09:44:25.719Z,50.92
2023-04-15T09:46:54.307Z,52.03
2023-04-15T09:49:22.416Z,54.00
2023-04-15T09:52:01.652Z,53.50
2023-04-15T09:54:37.512Z,53.31
2023-04-15T09:57:12.747Z,52.26
2023-04-15T09:59:40.744Z,52.82
2023-04-15T10:02:08.386Z,52.00
2023-04-15T10:04:40.231Z,52.65
2023-04-15T10:07:15.167Z,53.59
2023-04-15T10:09:47.089Z,53.03
2023-04-15T10:12:17.703Z,52.97
2023-04-15T10:14:49.956Z,51.50
2023-04-15T10:17:19.292Z,52.21
2023-04-15T10:19:48.389Z,51.71
2023-04-15T10:22:16.267Z,51.39
2023-04-15T10:24:45.597Z,50.15
2023-04-15T10:27:14.102Z,50.74
2023-04-15T10:29:41.487Z,50.71
2023-04-15T10:32:09.390Z,50.30
2023-04-15T10:34:37.898Z,49.45
2023-04-15T10:37:05.477Z,50.62
2023-04-15T10:39:45.392Z,48.85
2023-04-15T10:42:15.619Z,50.58
2023-04-15T10:44:56.712Z,49.50
2023-04-15T10:47:24.260Z,48.89
2023-04-15T10:49:57.156Z,49.97
2023-04-15T10:52:27.574Z,49.57
2023-04-15T10:55:12.938Z,49.64
2023-04-15T10:57:41.667Z,50.56
2023-04-15T11:00:18.551Z,49.40
2023-04-15T11:03:06.331Z,49.96
2023-04-15T11:05:43.114Z,51.81
2023-04-15T11:08:14.203Z,52.45
2023-04-15T11:10:41.480Z,52.51
2023-04-15T11:13:11.949Z,53.78
2023-04-15T11:15:46.999Z,53.52
2023-04-15T11:18:18.762Z,52.43
2023-04-15T11:21:00.311Z,51.41
2023-04-15T11:23:41.640Z,52.47
2023-04-15T11:26:12.555Z,51.58
2023-04-15T11:28:42.345Z,50.17
2023-04-15T11:31:18.537Z,49.15
2023-04-15T11:33:56.709Z,50.17
2023-04-15T11:36:28.734Z,48.90
2023-04-15T11:38:57.947Z,49.47
2023-04-15T11:41:25.498Z,50.23
2023-04-15T11:43:53.227Z,49.35
2023-04-15T11:46:22.167Z,49.30
2023-04-15T11:48:49.342Z,49.79
2023-04-15T11:51:22.101Z,49.09
2023-04-15T11:53:51.157Z,48.71
2023-04-15T11:56:23.574Z,48.96
2023-04-15T11:59:01.202Z,48.39
2023-04-15T12:01:47.042Z,49.53
2023-04-15T12:04:18.681Z,48.36
2023-04-15T12:06:49.073Z,49.90
2023-04-15T12:09:17.424Z,49.69
2023-04-15T12:11:44.915Z,51.44
2023-04-15T12:14:28.595Z,50.00
2023-04-15T12:16:58.859Z,48.61
2023-04-15T12:19:48.700Z,47.77
2023-04-15T12:22:17.795Z,48.95
2023-04-15T12:24:48.327Z,49.31
2023-04-15T12:27:17.825Z,49.69
2023-04-15T12:29:45.249Z,48.92
2023-04-15T12:32:13.363Z,49.45
2023-04-15T12:34:58.328Z,49.07
2023-04-15T12:37:26.191Z,49.52
2023-04-15T12:39:54.078Z,48.43
2023-04-15T12:42:22.883Z,49.76
2023-04-15T12:44:50.333Z,49.06
2023-04-15T12:47:18.732Z,48.51
2023-04-15T12:49:45.888Z,48.73
2023-04-15T12:52:13.913Z,48.02
2023-04-15T12:54:41.282Z,48.14
2023-04-15T12:57:08.461Z,47.69
2023-04-15T12:59:37.240Z,47.38
2023-04-15T13:02:05.893Z,48.58
2023-04-15T13:04:33.870Z,48.02
2023-04-15T13:07:02.614Z,48.24
2023-04-15T13:09:29.500Z,48.07
2023-04-15T13:11:57.763Z,48.31
2023-04-15T13:14:25.676Z,48.00
2023-04-15T13:16:54.042Z,49.50
2023-04-15T13:19:21.476Z,49.01
2023-04-15T13:21:49.826Z,49.30
2023-04-15T13:24:18.192Z,49.46
2023-04-15T13:26:45.351Z,49.30
2023-04-15T13:29:14.731Z,49.61
2023-04-15T13:31:44.171Z,49.45
2023-04-15T13:34:11.601Z,48.48
2023-04-15T13:36:39.188Z,46.70
2023-04-15T13:39:06.656Z,45.80
2023-04-15T13:41:33.707Z,45.36
2023-04-15T13:44:01.409Z,45.55
2023-04-15T13:46:28.760Z,43.36
2023-04-15T13:48:56.197Z,42.83
2023-04-15T13:51:23.384Z,42.07
2023-04-15T13:53:50.876Z,41.08
2023-04-15T13:56:18.970Z,41.32
2023-04-15T13:58:46.453Z,40.48
2023-04-15T14:01:13.815Z,40.29
2023-04-15T14:03:42.315Z,38.84
2023-04-15T14:06:10.892Z,39.78
2023-04-15T14:08:39.100Z,38.76
2023-04-15T14:11:06.681Z,40.50
2023-04-15T14:13:34.734Z,39.65
2023-04-15T14:16:02.669Z,39.62
2023-04-15T14:18:31.235Z,40.79
2023-04-15T14:20:59.052Z,42.38
2023-04-15T14:23:26.849Z,41.66
2023-04-15T14:25:54.414Z,42.62
2023-04-15T14:28:22.544Z,42.95
2023-04-15T14:30:50.142Z,42.72
2023-04-15T14:33:18.079Z,43.69
2023-04-15T14:35:46.696Z,45.84
2023-04-15T14:38:14.021Z,45.63
2023-04-15T14:40:42.649Z,47.17
2023-04-15T14:43:09.675Z,46.53
2023-04-15T14:45:39.482Z,45.92
2023-04-15T14:48:10.246Z,46.28
2023-04-15T14:50:37.826Z,44.76
2023-04-15T14:53:05.770Z,45.64
2023-04-15T14:55:41.355Z,46.78
2023-04-15T14:58:09.606Z,45.18
2023-04-15T15:00:41.492Z,45.28
2023-04-15T15:03:13.228Z,47.39
2023-04-15T15:05:46.783Z,47.49
2023-04-15T15:08:14.302Z,46.08
2023-04-15T15:10:49.478Z,46.39
2023-04-15T15:13:18.092Z,46.54
2023-04-15T15:15:45.637Z,46.25
2023-04-15T15:18:13.449Z,44.92
2023-04-15T15:20:41.285Z,45.69
2023-04-15T15:23:08.892Z,45.56
2023-04-15T15:25:36.405Z,46.32
2023-04-15T15:28:03.876Z,46.98
2023-04-15T15:30:31.404Z,47.17
2023-04-15T15:32:58.466Z,47.29
2023-04-15T15:35:26.191Z,47.28
2023-04-15T15:37:55.259Z,47.95
2023-04-15T15:40:24.831Z,48.17
2023-04-15T15:42:53.087Z,46.96
2023-04-15T15:45:20.714Z,46.97
2023-04-15T15:47:48.150Z,44.93
2023-04-15T15:50:15.858Z,45.29
2023-04-15T15:52:43.735Z,45.29
2023-04-15T15:55:11.437Z,47.05
2023-04-15T15:57:38.618Z,45.50
2023-04-15T16:03:04.297Z,44.66
2023-04-15T16:05:25.544Z,42.16
2023-04-15T16:07:53.142Z,43.47
2023-04-15T16:10:20.694Z,42.63
2023-04-15T16:12:47.850Z,41.14
2023-04-15T16:15:15.998Z,40.28
2023-04-15T16:17:43.530Z,40.58
2023-04-15T16:20:11.236Z,42.00
2023-04-15T16:22:39.839Z,42.71
2023-04-15T16:25:07.705Z,41.07
2023-04-15T16:27:49.957Z,39.42
2023-04-15T16:30:23.898Z,40.11
2023-04-15T16:32:53.160Z,39.31
2023-04-15T16:35:22.222Z,39.79
2023-04-15T16:37:49.818Z,38.81
2023-04-15T16:40:17.273Z,40.78
2023-04-15T16:42:44.723Z,38.58
2023-04-15T16:45:12.846Z,38.73
2023-04-15T16:47:40.170Z,38.51
2023-04-15T16:50:08.071Z,40.05
2023-04-15T16:52:37.463Z,38.63
2023-04-15T16:55:06.186Z,39.72
2023-04-15T16:58:01.836Z,40.87
2023-04-15T17:00:24.566Z,40.90
2023-04-15T17:02:53.582Z,41.97
2023-04-15T17:05:21.517Z,42.36
2023-04-15T17:07:48.661Z,43.06
2023-04-15T17:10:15.768Z,44.08
2023-04-15T17:12:43.322Z,43.73
2023-04-15T17:15:10.693Z,44.57
2023-04-15T17:17:37.628Z,43.89
2023-04-15T17:20:05.490Z,44.22
2023-04-15T17:22:35.128Z,44.69
2023-04-15T17:25:03.294Z,44.56
2023-04-15T17:27:31.061Z,44.42
2023-04-15T17:29:58.204Z,44.80
2023-04-15T17:32:32.009Z,44.86
2023-04-15T17:35:00.026Z,46.01
2023-04-15T17:37:27.736Z,45.96
2023-04-15T17:39:55.089Z,45.75
2023-04-15T17:42:23.149Z,46.90
2023-04-15T17:44:50.783Z,48.38
2023-04-15T17:47:17.751Z,50.82
2023-04-15T17:49:45.522Z,48.91
2023-04-15T17:52:12.878Z,48.57
2023-04-15T17:54:40.497Z,49.01
2023-04-15T17:57:07.876Z,49.80
2023-04-15T17:59:35.472Z,49.50
2023-04-15T18:02:02.845Z,49.00
2023-04-15T18:04:29.971Z,48.63
2023-04-15T18:06:56.923Z,49.22
2023-04-15T18:09:24.108Z,48.69
2023-04-15T18:11:51.266Z,48.99
2023-04-15T18:14:33.045Z,49.07
2023-04-15T18:17:02.890Z,49.15
2023-04-15T18:19:30.710Z,49.49
2023-04-15T18:22:00.727Z,49.77
2023-04-15T18:24:28.893Z,49.59
2023-04-15T18:26:59.256Z,50.01
2023-04-15T18:29:26.507Z,49.99
2023-04-15T18:31:54.115Z,50.15
2023-04-15T18:34:21.600Z,51.92
2023-04-15T18:36:48.359Z,51.26
2023-04-15T18:39:16.753Z,51.17
2023-04-15T18:41:43.988Z,51.46
2023-04-15T18:44:10.942Z,51.96
2023-04-15T18:46:38.155Z,52.33
2023-04-15T18:49:06.544Z,51.54
2023-04-15T18:51:33.788Z,50.79
2023-04-15T18:54:01.103Z,51.65
2023-04-15T18:56:28.155Z,51.74
2023-04-15T18:59:08.920Z,52.29
2023-04-15T19:01:42.211Z,52.71
2023-04-15T19:04:10.277Z,52.79
2023-04-15T19:06:37.708Z,51.72
2023-04-15T19:09:05.793Z,51.52
2023-04-15T19:11:33.463Z,52.23
2023-04-15T19:14:01.707Z,52.12
2023-04-15T19:16:28.511Z,52.70
2023-04-15T19:18:55.611Z,53.21
2023-04-15T19:21:23.002Z,54.27
2023-04-15T19:23:50.299Z,53.47
2023-04-15T19:26:17.492Z,53.43
2023-04-15T19:28:44.548Z,54.25
2023-04-15T19:31:11.866Z,54.67
2023-04-15T19:33:38.969Z,54.26
2023-04-15T19:36:07.246Z,53.27
2023-04-15T19:38:37.908Z,53.57
2023-04-15T19:41:04.805Z,54.76
2023-04-15T19:43:33.362Z,54.78
2023-04-15T19:46:00.646Z,55.82
2023-04-15T19:48:28.069Z,56.55
2023-04-15T19:50:55.381Z,55.44
2023-04-15T19:53:22.877Z,55.64
2023-04-15T19:55:50.333Z,55.09
2023-04-15T19:58:17.125Z,54.94
2023-04-15T20:00:45.028Z,55.92
2023-04-15T20:03:12.866Z,56.27
2023-04-15T20:05:40.194Z,55.93
2023-04-15T20:08:07.019Z,55.72
2023-04-15T20:10:35.433Z,55.77
2023-04-15T20:13:02.426Z,55.78
2023-04-15T20:15:29.456Z,56.90
2023-04-15T20:17:56.731Z,57.63
2023-04-15T20:20:23.885Z,56.87
2023-04-15T20:22:52.811Z,56.63
2023-04-15T20:25:20.307Z,56.52
2023-04-15T20:27:47.376Z,56.68
2023-04-15T20:30:14.663Z,56.64
2023-04-15T20:32:42.341Z,56.86
2023-04-15T20:35:09.354Z,57.25
2023-04-15T20:37:37.511Z,57.39
2023-04-15T20:40:05.154Z,57.70
2023-04-15T20:42:35.272Z,58.79
2023-04-15T20:45:03.249Z,58.02
2023-04-15T20:47:30.521Z,58.63
2023-04-15T20:49:57.442Z,57.75
2023-04-15T20:52:24.201Z,58.09
2023-04-15T20:54:51.848Z,58.02
2023-04-15T20:57:20.260Z,58.85
2023-04-15T20:59:47.680Z,58.17
2023-04-15T21:02:15.356Z,57.42
2023-04-15T21:04:42.798Z,57.56
2023-04-15T21:07:10.132Z,57.45
2023-04-15T21:09:41.798Z,57.74
2023-04-15T21:12:10.468Z,57.89
2023-04-15T21:14:39.721Z,58.31
2023-04-15T21:17:10.846Z,58.04
2023-04-15T21:19:38.822Z,58.51
2023-04-15T21:22:05.968Z,60.79
2023-04-15T21:24:33.508Z,60.96
2023-04-15T21:27:02.285Z,60.35
2023-04-15T21:29:29.573Z,59.73
2023-04-15T21:31:57.087Z,58.98
2023-04-15T21:34:24.050Z,58.09
2023-04-15T21:36:52.847Z,58.13
2023-04-15T21:39:19.695Z,58.54
2023-04-15T21:41:46.829Z,58.49
2023-04-15T21:44:15.106Z,59.50
2023-04-15T21:46:46.365Z,58.77
2023-04-15T21:49:13.985Z,59.31
2023-04-15T21:51:40.989Z,58.72
2023-04-15T21:54:08.309Z,57.00
2023-04-15T21:56:35.537Z,57.24
2023-04-15T21:59:03.473Z,56.76
2023-04-15T22:01:30.994Z,57.02
2023-04-15T22:03:58.131Z,56.96
2023-04-15T22:06:25.348Z,58.28
2023-04-15T22:08:56.735Z,58.46
2023-04-15T22:11:30.484Z,58.19
2023-04-15T22:13:59.200Z,58.18
2023-04-15T22:16:26.776Z,58.00
2023-04-15T22:18:55.393Z,59.07
2023-04-15T22:21:22.963Z,59.96
2023-04-15T22:23:50.463Z,60.70
2023-04-15T22:26:17.379Z,60.60
2023-04-15T22:28:44.274Z,60.65
2023-04-15T22:31:11.640Z,59.45
2023-04-15T22:33:39.964Z,58.81
2023-04-15T22:36:06.961Z,58.73
2023-04-15T22:38:34.060Z,58.00
2023-04-15T22:41:01.401Z,58.54
2023-04-15T22:43:28.277Z,58.27
2023-04-15T22:45:57.542Z,58.05
2023-04-15T22:48:24.822Z,57.94
2023-04-15T22:50:52.322Z,57.80
2023-04-15T22:53:20.276Z,58.32
2023-04-15T22:55:48.459Z,58.93
2023-04-15T22:58:18.583Z,58.88
2023-04-15T23:00:46.086Z,59.99
2023-04-15T23:03:13.963Z,59.12
2023-04-15T23:05:42.158Z,58.86
2023-04-15T23:08:09.328Z,59.00
2023-04-15T23:10:36.963Z,59.55
2023-04-15T23:13:03.959Z,60.63
2023-04-15T23:15:30.995Z,59.56
2023-04-15T23:17:57.870Z,59.23
2023-04-15T23:20:24.732Z,58.45
2023-04-15T23:22:51.711Z,58.73
2023-04-15T23:25:22.387Z,58.55
2023-04-15T23:27:49.270Z,58.08
2023-04-15T23:30:16.097Z,58.19
2023-04-15T23:32:43.469Z,58.19
2023-04-15T23:35:10.869Z,60.49
2023-04-15T23:37:37.942Z,60.81
2023-04-15T23:40:05.459Z,61.21
2023-04-15T23:42:32.338Z,60.43
2023-04-15T23:44:59.858Z,59.27
2023-04-15T23:47:27.267Z,59.04
2023-04-15T23:49:54.472Z,58.91
2023-04-15T23:52:21.353Z,58.32
2023-04-15T23:54:49.014Z,60.87
2023-04-15T23:57:16.377Z,61.68
2023-04-15T23:59:43.297Z,63.02
